MST,Max TemperatureF,Mean TemperatureF,Min TemperatureF,Max Dew PointF,MeanDew PointF,Min DewpointF,Max Humidity, Mean Humidity, Min Humidity, Max Sea Level PressureIn, Mean Sea Level PressureIn, Min Sea Level PressureIn, Max VisibilityMiles, Mean VisibilityMiles, Min VisibilityMiles, Max Wind SpeedMPH, Mean Wind SpeedMPH, Max Gust SpeedMPH,PrecipitationIn, CloudCover, Events, WindDirDegrees
2012-2-1,47,33,18,22,17,14,92,62,31,30.30,30.15,29.97,10,10,10,16,3,20,0.00,0,,217
2012-2-2,39,29,18,28,23,16,92,70,48,29.98,29.92,29.86,10,5,0,15,3,17,0.09,6,Fog-Snow,248
2012-2-3,36,23,9,25,18,7,100,78,56,30.21,30.08,29.96,10,10,1,15,5,20,0.00,3,,67
2012-2-4,39,31,23,24,21,17,88,68,47,30.18,30.13,30.07,10,10,10,20,8,28,0.00,2,,67
2012-2-5,45,30,15,24,19,12,92,63,33,30.19,30.11,30.03,10,10,10,17,4,22,0.00,0,,93
2012-2-6,46,30,14,25,15,8,88,56,24,30.16,30.08,30.00,10,10,10,15,4,20,0.00,0,,74
2012-2-7,38,31,24,19,15,12,68,53,37,30.19,30.13,30.06,10,10,10,16,8,22,0.00,2,,61
2012-2-8,50,38,26,26,21,16,78,56,34,30.25,30.17,30.09,10,10,10,12,2,14,0.00,6,,75
2012-2-9,56,38,19,26,19,13,92,55,18,30.29,30.21,30.12,10,10,10,14,2,17,0.00,1,,70
2012-2-10,57,40,22,24,19,11,92,54,16,30.28,30.18,30.11,10,10,10,15,3,20,0.00,0,,224
2012-2-11,51,37,23,23,19,12,88,56,23,30.09,29.94,29.74,10,10,10,26,9,36,0.00,0,,217
2012-2-12,40,35,30,32,28,20,100,74,48,29.91,29.82,29.69,10,5,0,25,12,33,0.13,7,Fog-Snow,226
2012-2-13,33,31,29,29,29,28,92,87,82,29.94,29.86,29.73,10,8,0,26,13,35,0.11,8,Fog-Snow,217
2012-2-14,34,28,21,28,23,14,100,72,43,29.94,29.80,29.70,10,6,0,29,9,37,0.31,7,Fog-Snow,232
2012-2-15,30,23,15,25,22,15,100,89,78,30.06,29.98,29.92,10,7,0,15,7,18,0.03,7,Fog-Snow,227
2012-2-16,39,24,8,23,17,8,100,72,44,30.12,30.08,29.99,10,10,2,23,11,30,0.00,1,,59
2012-2-17,48,35,21,20,15,6,68,47,25,30.13,30.04,29.98,10,10,10,17,7,22,0.00,0,,59
2012-2-18,45,29,13,24,17,9,81,57,33,30.18,30.07,29.90,10,10,10,21,6,24,0.00,0,,218
2012-2-19,36,30,23,30,26,17,92,81,69,29.97,29.85,29.78,10,6,0,24,10,31,0.08,6,Fog-Snow,237
2012-2-20,45,29,13,16,13,8,92,57,22,30.19,30.09,30.00,10,10,10,14,4,20,0.00,0,,220
2012-2-21,52,33,14,19,12,5,88,51,14,30.24,30.16,30.11,10,10,10,18,4,21,0.00,0,,223
2012-2-22,57,39,21,26,22,17,84,54,24,30.22,30.09,29.89,10,10,10,15,4,23,0.00,0,,243
2012-2-23,56,43,30,26,14,0,70,41,12,29.96,29.87,29.80,10,10,10,18,7,26,0.00,0,,235
2012-2-24,49,36,22,9,4,1,50,32,14,30.25,30.14,29.99,10,10,10,20,8,24,0.00,0,,74
2012-2-25,54,37,20,16,13,9,68,44,19,30.19,30.03,29.91,10,10,10,26,10,37,0.00,0,,235
2012-2-26,51,36,20,17,9,-2,84,49,14,29.99,29.93,29.88,10,10,10,18,3,23,0.00,1,,108
2012-2-27,50,35,20,28,22,11,77,54,31,29.89,29.77,29.60,10,10,10,38,16,55,T,5,,212
2012-2-28,31,23,15,27,20,12,100,85,69,30.25,29.90,29.58,10,4,0,33,14,46,0.24,7,Fog-Snow,229
2012-2-29,42,25,8,22,13,3,92,57,22,30.25,30.15,30.00,10,10,10,24,9,35,0.00,0,,238